createdAt,value
2024-02-08T00:01:51.429Z,6.40
2024-02-08T00:03:54.251Z,6.40
2024-02-08T00:05:57.006Z,6.20
2024-02-08T00:07:59.851Z,6.20
2024-02-08T00:10:02.896Z,6.10
2024-02-08T00:12:06.384Z,6.20
2024-02-08T00:14:10.537Z,6.20
2024-02-08T00:16:13.740Z,6.30
2024-02-08T00:18:16.744Z,6.20
2024-02-08T00:20:19.838Z,6.20
2024-02-08T00:22:21.719Z,6.20
2024-02-08T00:24:24.575Z,6.30
2024-02-08T00:26:27.314Z,6.30
2024-02-08T00:28:30.184Z,6.30
2024-02-08T00:30:34.277Z,6.10
2024-02-08T00:32:37.094Z,6.00
2024-02-08T00:34:41.677Z,6.00
2024-02-08T00:36:44.573Z,6.10
2024-02-08T00:38:47.387Z,6.00
2024-02-08T00:40:52.428Z,6.00
2024-02-08T00:42:55.793Z,5.90
2024-02-08T00:44:58.502Z,5.90
2024-02-08T00:47:01.657Z,5.90
2024-02-08T00:49:04.510Z,5.90
2024-02-08T00:51:08.228Z,5.90
2024-02-08T00:53:11.181Z,5.90
2024-02-08T00:55:16.176Z,5.90
2024-02-08T00:57:18.985Z,5.90
2024-02-08T00:59:23.501Z,5.90
2024-02-08T01:01:27.095Z,5.80
2024-02-08T01:03:31.250Z,5.80
2024-02-08T01:05:33.751Z,5.80
2024-02-08T01:07:36.739Z,5.70
2024-02-08T01:09:38.575Z,5.80
2024-02-08T01:11:41.367Z,5.80
2024-02-08T01:13:43.288Z,5.80
2024-02-08T01:15:48.210Z,5.80
2024-02-08T01:17:53.077Z,5.80
2024-02-08T01:20:00.494Z,5.80
2024-02-08T01:22:04.352Z,5.80
2024-02-08T01:24:07.322Z,5.80
2024-02-08T01:26:10.813Z,5.80
2024-02-08T01:28:14.094Z,5.70
2024-02-08T01:30:16.837Z,5.80
2024-02-08T01:32:19.835Z,5.80
2024-02-08T01:34:25.166Z,5.70
2024-02-08T01:36:28.406Z,5.80
2024-02-08T01:38:31.352Z,5.80
2024-02-08T01:40:36.377Z,5.80
2024-02-08T01:42:39.091Z,5.80
2024-02-08T01:44:46.255Z,5.80
2024-02-08T01:46:49.771Z,5.80
2024-02-08T01:48:54.595Z,5.90
2024-02-08T01:51:00.841Z,5.90
2024-02-08T01:53:06.686Z,5.80
2024-02-08T01:55:10.343Z,5.80
2024-02-08T01:57:14.217Z,5.80
2024-02-08T01:59:20.933Z,5.80
2024-02-08T02:01:24.377Z,5.80
2024-02-08T02:03:27.272Z,5.80
2024-02-08T02:05:30.348Z,5.80
2024-02-08T02:07:33.230Z,5.80
2024-02-08T02:09:37.433Z,5.80
2024-02-08T02:11:46.044Z,5.80
2024-02-08T02:13:50.582Z,5.90
2024-02-08T02:15:53.907Z,5.90
2024-02-08T02:17:55.793Z,5.90
2024-02-08T02:20:07.293Z,5.90
2024-02-08T02:22:14.525Z,5.90
2024-02-08T02:24:17.307Z,5.90
2024-02-08T02:26:20.828Z,6.00
2024-02-08T02:28:23.973Z,6.00
2024-02-08T02:30:28.324Z,6.00
2024-02-08T02:32:32.308Z,6.00
2024-02-08T02:34:37.548Z,6.00
2024-02-08T02:36:45.467Z,6.00
2024-02-08T02:38:52.643Z,6.00
2024-02-08T02:40:55.441Z,6.00
2024-02-08T02:42:57.978Z,6.10
2024-02-08T02:45:01.449Z,6.10
2024-02-08T02:47:05.585Z,6.10
2024-02-08T02:49:10.766Z,6.10
2024-02-08T02:51:13.441Z,6.10
2024-02-08T02:53:18.580Z,6.20
2024-02-08T02:55:24.068Z,6.20
2024-02-08T02:57:26.892Z,6.30
2024-02-08T03:00:00.824Z,6.30
2024-02-08T03:02:03.705Z,6.30
2024-02-08T03:04:06.509Z,6.40
2024-02-08T03:06:15.781Z,6.40
2024-02-08T03:08:20.448Z,6.30
2024-02-08T03:10:24.822Z,6.30
2024-02-08T03:12:27.816Z,6.30
2024-02-08T03:14:30.644Z,6.30
2024-02-08T03:16:37.602Z,6.30
2024-02-08T03:18:44.569Z,6.20
2024-02-08T03:20:48.130Z,6.20
2024-02-08T03:22:49.946Z,6.20
2024-02-08T03:24:52.726Z,6.20
2024-02-08T03:26:56.996Z,6.20
2024-02-08T03:28:59.878Z,6.20
2024-02-08T03:31:02.646Z,6.30
2024-02-08T03:33:13.471Z,6.20
2024-02-08T03:35:16.555Z,6.20
2024-02-08T03:37:21.823Z,6.10
2024-02-08T03:39:27.585Z,6.10
2024-02-08T03:41:32.942Z,6.10
2024-02-08T03:43:37.139Z,6.10
2024-02-08T03:45:41.586Z,6.10
2024-02-08T03:47:46.106Z,6.20
2024-02-08T03:49:52.536Z,6.30
2024-02-08T03:51:57.153Z,6.30
2024-02-08T03:54:04.373Z,6.40
2024-02-08T03:56:08.135Z,6.40
2024-02-08T03:58:11.333Z,6.40
2024-02-08T04:00:24.075Z,6.30
2024-02-08T04:02:27.676Z,6.40
2024-02-08T04:04:30.727Z,6.50
2024-02-08T04:06:50.567Z,6.50
2024-02-08T04:09:10.086Z,6.50
2024-02-08T04:11:29.629Z,6.40
2024-02-08T04:13:52.367Z,6.40
2024-02-08T04:16:14.361Z,6.50
2024-02-08T04:18:34.879Z,6.50
2024-02-08T04:20:56.210Z,6.50
2024-02-08T04:23:22.798Z,6.60
2024-02-08T04:25:43.318Z,6.50
2024-02-08T04:28:03.889Z,6.60
2024-02-08T04:30:24.498Z,6.60
2024-02-08T04:32:46.326Z,6.50
2024-02-08T04:35:06.749Z,6.60
2024-02-08T04:37:27.256Z,6.60
2024-02-08T04:39:47.746Z,6.60
2024-02-08T04:42:07.993Z,6.60
2024-02-08T04:44:28.539Z,6.60
2024-02-08T04:46:49.184Z,6.60
2024-02-08T04:49:11.161Z,6.60
2024-02-08T04:51:32.446Z,6.70
2024-02-08T04:53:41.948Z,6.70
2024-02-08T04:55:44.875Z,6.70
2024-02-08T04:57:48.782Z,6.70
2024-02-08T04:59:55.038Z,6.80
2024-02-08T05:01:58.306Z,6.80
2024-02-08T05:04:02.666Z,6.80
2024-02-08T05:06:12.497Z,6.90
2024-02-08T05:08:17.145Z,6.90
2024-02-08T05:10:19.707Z,6.90
2024-02-08T05:12:22.570Z,6.90
2024-02-08T05:14:26.624Z,6.90
2024-02-08T05:16:32.307Z,6.90
2024-02-08T05:18:34.902Z,6.90
2024-02-08T05:20:39.040Z,6.90
2024-02-08T05:22:43.647Z,6.90
2024-02-08T05:24:47.425Z,6.90
2024-02-08T05:26:49.262Z,6.90
2024-02-08T05:28:54.031Z,7.00
2024-02-08T05:30:56.940Z,7.00
2024-02-08T05:33:00.555Z,7.00
2024-02-08T05:35:03.867Z,7.00
2024-02-08T05:37:08.229Z,7.00
2024-02-08T05:39:10.456Z,7.00
2024-02-08T05:41:17.047Z,6.90
2024-02-08T05:43:25.076Z,6.90
2024-02-08T05:45:31.952Z,6.90
2024-02-08T05:47:37.561Z,6.90
2024-02-08T05:49:39.860Z,7.00
2024-02-08T05:51:47.963Z,6.90
2024-02-08T05:53:53.197Z,7.00
2024-02-08T05:55:55.093Z,7.00
2024-02-08T05:57:59.943Z,7.00
2024-02-08T06:00:11.214Z,7.10
2024-02-08T06:02:23.892Z,7.10
2024-02-08T06:04:35.496Z,7.10
2024-02-08T06:06:42.945Z,7.10
2024-02-08T06:08:45.456Z,7.10
2024-02-08T06:10:53.532Z,7.10
2024-02-08T06:13:00.775Z,7.10
2024-02-08T06:15:15.770Z,7.10
2024-02-08T06:17:25.399Z,7.00
2024-02-08T06:19:35.556Z,7.00
2024-02-08T06:21:41.840Z,7.00
2024-02-08T06:23:46.567Z,7.00
2024-02-08T06:26:22.623Z,7.10
2024-02-08T06:28:27.762Z,7.10
2024-02-08T06:30:32.842Z,7.10
2024-02-08T06:32:44.964Z,7.10
2024-02-08T06:34:49.140Z,7.10
2024-02-08T06:37:00.075Z,7.10
2024-02-08T06:39:21.311Z,7.10
2024-02-08T06:41:45.983Z,7.10
2024-02-08T06:43:58.430Z,7.10
2024-02-08T06:46:19.281Z,7.00
2024-02-08T06:48:37.379Z,6.90
2024-02-08T06:50:58.101Z,7.00
2024-02-08T06:53:18.732Z,7.00
2024-02-08T06:55:39.384Z,7.00
2024-02-08T06:58:12.751Z,7.00
2024-02-08T07:00:33.974Z,7.00
2024-02-08T07:02:54.643Z,7.00
2024-02-08T07:05:15.411Z,7.00
2024-02-08T07:07:35.866Z,7.00
2024-02-08T07:09:56.287Z,7.00
2024-02-08T07:12:16.700Z,7.00
2024-02-08T07:14:38.553Z,7.00
2024-02-08T07:16:59.139Z,7.00
2024-02-08T07:19:19.724Z,7.00
2024-02-08T07:21:55.623Z,7.00
2024-02-08T07:24:16.543Z,7.00
2024-02-08T07:26:37.505Z,7.00
2024-02-08T07:28:57.831Z,7.00
2024-02-08T07:31:19.817Z,7.00
2024-02-08T07:33:40.434Z,7.00
2024-02-08T07:36:00.876Z,7.10
2024-02-08T07:38:03.669Z,7.10
2024-02-08T07:40:24.738Z,7.10
2024-02-08T07:42:33.235Z,7.10
2024-02-08T07:44:37.422Z,7.10
2024-02-08T07:46:48.382Z,7.10
2024-02-08T07:48:59.707Z,7.10
2024-02-08T07:51:04.242Z,7.10
2024-02-08T07:53:10.135Z,7.10
2024-02-08T07:55:27.773Z,7.10
2024-02-08T07:57:32.765Z,7.20
2024-02-08T07:59:36.192Z,7.20
2024-02-08T08:01:41.484Z,7.20
2024-02-08T08:03:45.756Z,7.30
2024-02-08T08:05:57.713Z,7.20
2024-02-08T08:08:02.660Z,7.20
2024-02-08T08:10:10.085Z,7.20
2024-02-08T08:12:16.261Z,7.30
2024-02-08T08:14:36.702Z,7.30
2024-02-08T08:17:00.173Z,7.30
2024-02-08T08:19:09.483Z,7.30
2024-02-08T08:21:27.102Z,7.30
2024-02-08T08:23:29.176Z,7.40
2024-02-08T08:25:46.336Z,7.40
2024-02-08T08:27:54.344Z,7.30
2024-02-08T08:30:00.219Z,7.40
2024-02-08T08:32:22.339Z,7.40
2024-02-08T08:34:44.284Z,7.40
2024-02-08T08:36:58.563Z,7.40
2024-02-08T08:39:15.592Z,7.40
2024-02-08T08:41:20.069Z,7.50
2024-02-08T08:43:23.968Z,7.50
2024-02-08T08:45:26.997Z,7.50
2024-02-08T08:47:30.212Z,7.50
2024-02-08T08:49:40.802Z,7.50
2024-02-08T08:51:44.497Z,7.50
2024-02-08T08:53:58.133Z,7.60
2024-02-08T08:56:04.513Z,7.60
2024-02-08T08:58:13.646Z,7.60
2024-02-08T09:00:21.412Z,7.60
2024-02-08T09:02:24.432Z,7.60
2024-02-08T09:04:37.630Z,7.60
2024-02-08T09:06:43.105Z,7.70
2024-02-08T09:08:55.978Z,7.70
2024-02-08T09:10:58.819Z,7.70
2024-02-08T09:13:00.878Z,7.80
2024-02-08T09:15:20.931Z,7.70
2024-02-08T09:17:26.542Z,7.60
2024-02-08T09:19:33.481Z,7.60
2024-02-08T09:21:37.048Z,7.60
2024-02-08T09:23:41.399Z,7.60
2024-02-08T09:25:46.216Z,7.60
2024-02-08T09:27:48.548Z,7.70
2024-02-08T09:29:57.737Z,7.80
2024-02-08T09:32:16.616Z,7.80
2024-02-08T09:34:20.259Z,7.80
2024-02-08T09:36:24.288Z,7.80
2024-02-08T09:38:29.373Z,7.70
2024-02-08T09:40:43.828Z,7.80
2024-02-08T09:42:56.111Z,7.80
2024-02-08T09:45:15.461Z,7.80
2024-02-08T09:47:26.905Z,7.90
2024-02-08T09:49:36.228Z,8.00
2024-02-08T09:51:41.764Z,7.90
2024-02-08T09:53:52.957Z,7.90
2024-02-08T09:55:59.508Z,7.90
2024-02-08T09:58:05.722Z,7.90
2024-02-08T10:00:11.921Z,7.90
2024-02-08T10:02:25.784Z,7.90
2024-02-08T10:04:32.276Z,8.00
2024-02-08T10:06:47.094Z,8.00
2024-02-08T10:08:55.499Z,8.00
2024-02-08T10:11:25.022Z,8.00
2024-02-08T10:13:31.833Z,7.90
2024-02-08T10:15:45.583Z,7.90
2024-02-08T10:17:53.976Z,7.90
2024-02-08T10:20:16.682Z,8.00
2024-02-08T10:22:28.458Z,8.00
2024-02-08T10:25:05.525Z,8.00
2024-02-08T10:27:16.389Z,8.10
2024-02-08T10:29:26.247Z,8.10
2024-02-08T10:31:30.308Z,8.10
2024-02-08T10:33:38.719Z,8.10
2024-02-08T10:35:42.172Z,8.20
2024-02-08T10:37:48.757Z,8.20
2024-02-08T10:40:01.037Z,8.20
2024-02-08T10:42:04.736Z,8.20
2024-02-08T10:44:19.310Z,8.20
2024-02-08T10:46:23.266Z,8.10
2024-02-08T10:48:30.143Z,8.10
2024-02-08T10:50:36.147Z,8.20
2024-02-08T10:52:50.243Z,8.20
2024-02-08T10:54:54.554Z,8.20
2024-02-08T10:57:09.549Z,8.30
2024-02-08T10:59:15.067Z,8.20
2024-02-08T11:01:32.973Z,8.30
2024-02-08T11:03:45.273Z,8.30
2024-02-08T11:06:02.679Z,8.40
2024-02-08T11:08:14.745Z,8.40
2024-02-08T11:10:24.500Z,8.50
2024-02-08T11:12:31.573Z,8.50
2024-02-08T11:14:42.544Z,8.50
2024-02-08T11:16:48.527Z,8.50
2024-02-08T11:18:53.807Z,8.50
2024-02-08T11:21:04.800Z,8.50
2024-02-08T11:23:12.401Z,8.50
2024-02-08T11:25:34.861Z,8.60
2024-02-08T11:27:37.904Z,8.60
2024-02-08T11:29:46.992Z,8.50
2024-02-08T11:31:50.114Z,8.50
2024-02-08T11:33:56.794Z,8.50
2024-02-08T11:36:13.327Z,8.50
2024-02-08T11:38:18.794Z,8.60
2024-02-08T11:40:29.706Z,8.60
2024-02-08T11:42:37.119Z,8.60
2024-02-08T11:44:44.784Z,8.70
2024-02-08T11:46:52.701Z,8.70
2024-02-08T11:49:11.454Z,8.70
2024-02-08T11:51:15.853Z,8.60
2024-02-08T11:53:32.697Z,8.50
2024-02-08T11:55:35.770Z,8.50
2024-02-08T11:57:42.156Z,8.50
2024-02-08T11:59:47.169Z,8.40
2024-02-08T12:01:52.358Z,8.50
2024-02-08T12:03:57.463Z,8.50
2024-02-08T12:05:59.649Z,8.50
2024-02-08T12:08:09.717Z,8.50
2024-02-08T12:10:15.050Z,8.60
2024-02-08T12:12:20.541Z,8.60
2024-02-08T12:14:27.488Z,8.50
2024-02-08T12:16:31.368Z,8.60
2024-02-08T12:18:37.781Z,8.70
2024-02-08T12:20:44.960Z,8.60
2024-02-08T12:22:54.938Z,8.60
2024-02-08T12:25:01.415Z,8.50
2024-02-08T12:27:13.047Z,8.50
2024-02-08T12:29:19.397Z,8.60
2024-02-08T12:31:25.725Z,8.60
2024-02-08T12:33:31.102Z,8.60
2024-02-08T12:35:36.450Z,8.60
2024-02-08T12:37:42.022Z,8.50
2024-02-08T12:39:46.892Z,8.50
2024-02-08T12:41:51.523Z,8.40
2024-02-08T12:43:54.681Z,8.40
2024-02-08T12:45:58.007Z,8.40
2024-02-08T12:48:06.183Z,8.40
2024-02-08T12:50:18.441Z,8.50
2024-02-08T12:52:31.872Z,8.50
2024-02-08T12:54:35.079Z,8.50
2024-02-08T12:56:37.996Z,8.50
2024-02-08T12:58:41.935Z,8.40
2024-02-08T13:00:46.761Z,8.50
2024-02-08T13:02:55.572Z,8.50
2024-02-08T13:04:58.638Z,8.60
2024-02-08T13:07:02.617Z,8.60
2024-02-08T13:09:26.829Z,8.60
2024-02-08T13:11:29.893Z,8.60
2024-02-08T13:13:33.857Z,8.60
2024-02-08T13:15:36.962Z,8.70
2024-02-08T13:17:39.860Z,8.70
2024-02-08T13:19:42.547Z,8.60
2024-02-08T13:21:45.454Z,8.60
2024-02-08T13:23:48.292Z,8.60
2024-02-08T13:25:58.115Z,8.60
2024-02-08T13:28:01.900Z,8.60
2024-02-08T13:30:15.788Z,8.60
2024-02-08T13:32:18.683Z,8.50
2024-02-08T13:34:28.569Z,8.50
2024-02-08T13:36:32.382Z,8.50
2024-02-08T13:38:35.238Z,8.50
2024-02-08T13:40:44.335Z,8.40
2024-02-08T13:42:55.197Z,8.40
2024-02-08T13:44:59.783Z,8.40
2024-02-08T13:47:05.215Z,8.40
2024-02-08T13:49:09.033Z,8.40
2024-02-08T13:51:12.346Z,8.40
2024-02-08T13:53:16.842Z,8.40
2024-02-08T13:55:19.897Z,8.40
2024-02-08T13:57:23.151Z,8.50
2024-02-08T13:59:28.453Z,8.40
2024-02-08T14:01:33.735Z,8.40
2024-02-08T14:03:37.015Z,8.30
2024-02-08T14:05:41.897Z,8.30
2024-02-08T14:07:45.107Z,8.30
2024-02-08T14:09:54.034Z,8.20
2024-02-08T14:11:57.614Z,8.20
2024-02-08T14:14:00.489Z,8.10
2024-02-08T14:16:15.096Z,8.10
2024-02-08T14:18:34.269Z,8.00
2024-02-08T14:20:45.056Z,8.00
2024-02-08T14:22:50.097Z,8.10
2024-02-08T14:24:55.243Z,8.00
2024-02-08T14:26:57.498Z,8.00
2024-02-08T14:29:01.147Z,7.90
2024-02-08T14:31:05.798Z,7.90
2024-02-08T14:33:08.700Z,8.00
2024-02-08T14:35:17.793Z,8.00
2024-02-08T14:37:23.056Z,8.00
2024-02-08T14:39:30.930Z,7.90
2024-02-08T14:41:38.255Z,7.90
2024-02-08T14:43:47.745Z,7.90
2024-02-08T14:45:54.277Z,7.90
2024-02-08T14:47:58.625Z,7.90
2024-02-08T14:50:02.665Z,7.90
2024-02-08T14:52:16.502Z,7.80
2024-02-08T14:54:20.988Z,7.80
2024-02-08T14:56:23.801Z,7.70
2024-02-08T14:58:34.208Z,7.70
2024-02-08T15:00:51.432Z,7.70
2024-02-08T15:02:56.956Z,7.70
2024-02-08T15:05:02.333Z,7.60
2024-02-08T15:07:08.328Z,7.60
2024-02-08T15:09:28.585Z,7.50
2024-02-08T15:11:58.755Z,7.40
2024-02-08T15:14:03.251Z,7.40
2024-02-08T15:16:09.237Z,7.50
2024-02-08T15:18:16.419Z,7.50
2024-02-08T15:20:44.642Z,7.50
2024-02-08T15:22:50.759Z,7.50
2024-02-08T15:24:58.228Z,7.40
2024-02-08T15:27:06.448Z,7.40
2024-02-08T15:29:10.291Z,7.40
2024-02-08T15:31:40.494Z,7.40
2024-02-08T15:33:59.321Z,7.40
2024-02-08T15:36:11.657Z,7.40
2024-02-08T15:38:46.458Z,7.40
2024-02-08T15:40:48.889Z,7.40
2024-02-08T15:42:51.711Z,7.50
2024-02-08T15:44:54.322Z,7.40
2024-02-08T15:46:58.162Z,7.50
2024-02-08T15:49:01.489Z,7.40
2024-02-08T15:51:10.469Z,7.40
2024-02-08T15:53:18.962Z,7.40
2024-02-08T15:55:26.795Z,7.40
2024-02-08T15:57:33.713Z,7.30
2024-02-08T15:59:36.247Z,7.30
2024-02-08T16:01:51.110Z,7.30
2024-02-08T16:04:01.288Z,7.10
2024-02-08T16:06:25.568Z,7.20
2024-02-08T16:08:36.487Z,7.20
2024-02-08T16:10:40.069Z,7.30
2024-02-08T16:12:48.234Z,7.30
2024-02-08T16:15:00.800Z,7.30
2024-02-08T16:17:29.733Z,7.20
2024-02-08T16:19:43.485Z,7.30
2024-02-08T16:21:47.945Z,7.30
2024-02-08T16:23:53.079Z,7.30
2024-02-08T16:26:07.094Z,7.30
2024-02-08T16:28:17.808Z,7.20
2024-02-08T16:30:30.026Z,7.30
2024-02-08T16:32:36.483Z,7.30
2024-02-08T16:34:51.771Z,7.20
2024-02-08T16:37:04.692Z,7.30
2024-02-08T16:39:07.847Z,7.30
2024-02-08T16:41:10.716Z,7.20
2024-02-08T16:43:14.575Z,7.20
2024-02-08T16:45:28.886Z,7.30
2024-02-08T16:47:35.782Z,7.30
2024-02-08T16:49:43.611Z,7.30
2024-02-08T16:51:50.101Z,7.20
2024-02-08T16:54:02.914Z,7.10
2024-02-08T16:56:11.278Z,7.10
2024-02-08T16:58:29.280Z,7.10
2024-02-08T17:00:39.953Z,7.20
2024-02-08T17:02:51.017Z,7.20
2024-02-08T17:04:59.821Z,7.30
2024-02-08T17:07:12.198Z,7.30
2024-02-08T17:09:25.340Z,7.20
2024-02-08T17:11:33.076Z,7.20
2024-02-08T17:13:46.259Z,7.20
2024-02-08T17:16:01.650Z,7.10
2024-02-08T17:18:11.399Z,7.10
2024-02-08T17:20:34.546Z,7.10
2024-02-08T17:22:50.259Z,7.10
2024-02-08T17:25:20.195Z,7.10
2024-02-08T17:27:39.362Z,7.10
2024-02-08T17:29:46.363Z,7.10
2024-02-08T17:31:49.623Z,7.10
2024-02-08T17:33:52.721Z,7.00
2024-02-08T17:35:56.503Z,7.00
2024-02-08T17:38:01.937Z,7.10
2024-02-08T17:40:17.814Z,7.10
2024-02-08T17:42:20.732Z,7.10
2024-02-08T17:44:31.146Z,7.20
2024-02-08T17:46:39.211Z,7.30
2024-02-08T17:48:43.644Z,7.40
2024-02-08T17:50:49.021Z,7.40
2024-02-08T17:52:53.374Z,7.30
2024-02-08T17:55:01.287Z,7.30
2024-02-08T17:57:12.869Z,7.30
2024-02-08T17:59:18.179Z,7.30
2024-02-08T18:01:33.054Z,7.30
2024-02-08T18:03:36.018Z,7.30
2024-02-08T18:05:39.586Z,7.30
2024-02-08T18:07:45.565Z,7.20
2024-02-08T18:09:56.054Z,7.20
2024-02-08T18:12:13.205Z,7.20
2024-02-08T18:14:19.106Z,7.30
2024-02-08T18:16:24.389Z,7.20
2024-02-08T18:18:27.312Z,7.20
2024-02-08T18:20:34.404Z,7.20
2024-02-08T18:22:42.287Z,7.20
2024-02-08T18:24:45.927Z,7.10
2024-02-08T18:26:50.239Z,7.10
2024-02-08T18:28:52.072Z,7.00
2024-02-08T18:30:57.913Z,7.00
2024-02-08T18:33:04.248Z,7.00
2024-02-08T18:35:08.545Z,7.00
2024-02-08T18:37:12.916Z,7.10
2024-02-08T18:39:27.063Z,7.00
2024-02-08T18:41:29.975Z,7.00
2024-02-08T18:43:34.717Z,7.10
2024-02-08T18:45:41.813Z,7.00
2024-02-08T18:47:46.257Z,7.00
2024-02-08T18:49:53.561Z,7.10
2024-02-08T18:51:58.240Z,7.10
2024-02-08T18:54:01.762Z,7.10
2024-02-08T18:56:04.726Z,7.20
2024-02-08T18:58:10.444Z,7.10
2024-02-08T19:00:15.210Z,7.10
2024-02-08T19:02:25.382Z,7.00
2024-02-08T19:04:30.655Z,7.10
2024-02-08T19:06:41.067Z,7.00
2024-02-08T19:08:45.323Z,7.00
2024-02-08T19:10:52.759Z,7.00
2024-02-08T19:12:55.800Z,7.10
2024-02-08T19:15:01.124Z,7.10
2024-02-08T19:17:07.943Z,7.10
2024-02-08T19:19:12.382Z,7.10
2024-02-08T19:21:26.982Z,7.00
2024-02-08T19:23:30.223Z,6.90
2024-02-08T19:25:36.491Z,7.00
2024-02-08T19:27:39.554Z,7.10
2024-02-08T19:29:42.587Z,7.10
2024-02-08T19:31:47.533Z,7.00
2024-02-08T19:33:52.399Z,7.00
2024-02-08T19:35:56.620Z,7.10
2024-02-08T19:38:04.988Z,7.00
2024-02-08T19:40:09.937Z,7.00
2024-02-08T19:42:22.914Z,7.10
2024-02-08T19:44:27.267Z,7.10
2024-02-08T19:46:30.610Z,7.10
2024-02-08T19:48:33.792Z,6.90
2024-02-08T19:50:39.210Z,6.90
2024-02-08T19:52:45.960Z,6.90
2024-02-08T19:54:51.532Z,7.00
2024-02-08T19:56:54.787Z,6.90
2024-02-08T19:59:02.951Z,7.00
2024-02-08T20:01:11.515Z,6.90
2024-02-08T20:03:21.835Z,6.90
2024-02-08T20:05:24.626Z,6.90
2024-02-08T20:07:28.905Z,6.90
2024-02-08T20:09:33.497Z,6.90
2024-02-08T20:11:42.949Z,7.00
2024-02-08T20:13:47.408Z,7.00
2024-02-08T20:15:49.380Z,6.90
2024-02-08T20:17:53.687Z,7.00
2024-02-08T20:19:58.563Z,7.00
2024-02-08T20:22:01.455Z,7.10
2024-02-08T20:24:09.001Z,7.10
2024-02-08T20:26:13.251Z,7.10
2024-02-08T20:28:17.939Z,7.10
2024-02-08T20:30:22.395Z,7.20
2024-02-08T20:32:29.833Z,7.20
2024-02-08T20:34:33.485Z,7.20
2024-02-08T20:36:36.354Z,7.20
2024-02-08T20:38:39.085Z,7.10
2024-02-08T20:40:42.415Z,7.20
2024-02-08T20:42:48.329Z,7.20
2024-02-08T20:44:52.590Z,7.20
2024-02-08T20:46:57.659Z,7.30
2024-02-08T20:49:03.225Z,7.30
2024-02-08T20:51:08.332Z,7.40
2024-02-08T20:53:16.087Z,7.30
2024-02-08T20:55:25.067Z,7.30
2024-02-08T20:57:28.242Z,7.40
2024-02-08T20:59:31.032Z,7.30
2024-02-08T21:01:36.350Z,7.30
2024-02-08T21:03:40.559Z,7.30
2024-02-08T21:05:45.838Z,7.30
2024-02-08T21:07:48.905Z,7.30
2024-02-08T21:09:52.220Z,7.40
2024-02-08T21:11:54.134Z,7.30
2024-02-08T21:13:57.022Z,7.20
2024-02-08T21:16:00.262Z,7.20
2024-02-08T21:18:08.098Z,7.30
2024-02-08T21:20:10.501Z,7.30
2024-02-08T21:22:15.479Z,7.40
2024-02-08T21:24:18.381Z,7.40
2024-02-08T21:26:22.931Z,7.40
2024-02-08T21:28:26.880Z,7.40
2024-02-08T21:30:32.926Z,7.40
2024-02-08T21:32:35.881Z,7.40
2024-02-08T21:34:40.301Z,7.30
2024-02-08T21:36:44.332Z,7.30
2024-02-08T21:38:47.909Z,7.30
2024-02-08T21:40:50.677Z,7.20
2024-02-08T21:42:53.674Z,7.20
2024-02-08T21:44:58.430Z,7.30
2024-02-08T21:47:01.321Z,7.30
2024-02-08T21:49:04.231Z,7.30
2024-02-08T21:51:08.505Z,7.40
2024-02-08T21:53:14.518Z,7.40
2024-02-08T21:55:17.759Z,7.40
2024-02-08T21:57:20.582Z,7.40
2024-02-08T21:59:23.349Z,7.40
2024-02-08T22:01:36.952Z,7.40
2024-02-08T22:03:40.674Z,7.50
2024-02-08T22:05:45.566Z,7.50
2024-02-08T22:07:50.237Z,7.50
2024-02-08T22:09:54.344Z,7.60
2024-02-08T22:11:57.588Z,7.50
2024-02-08T22:14:00.971Z,7.50
2024-02-08T22:16:04.008Z,7.60
2024-02-08T22:18:08.520Z,7.60
2024-02-08T22:20:13.584Z,7.70
2024-02-08T22:22:16.650Z,7.60
2024-02-08T22:24:21.554Z,7.70
2024-02-08T22:26:25.122Z,7.70
2024-02-08T22:28:29.722Z,7.70
2024-02-08T22:30:33.096Z,7.80
2024-02-08T22:32:36.878Z,7.80
2024-02-08T22:34:42.754Z,7.70
2024-02-08T22:36:46.093Z,7.80
2024-02-08T22:38:48.999Z,7.80
2024-02-08T22:40:53.319Z,7.80
2024-02-08T22:42:56.181Z,7.80
2024-02-08T22:44:58.307Z,7.90
2024-02-08T22:47:04.618Z,7.90
2024-02-08T22:49:07.877Z,7.90
2024-02-08T22:51:10.805Z,7.90
2024-02-08T22:53:13.976Z,7.90
2024-02-08T22:55:18.675Z,8.00
2024-02-08T22:57:22.929Z,8.00
2024-02-08T22:59:25.822Z,8.00
2024-02-08T23:01:36.308Z,8.00
2024-02-08T23:03:39.431Z,8.00
2024-02-08T23:05:43.302Z,8.00
2024-02-08T23:07:46.215Z,8.00
2024-02-08T23:09:49.113Z,8.00
2024-02-08T23:11:51.605Z,8.00
2024-02-08T23:13:56.158Z,8.00
2024-02-08T23:15:59.833Z,8.00
2024-02-08T23:18:04.117Z,8.00
2024-02-08T23:20:12.192Z,8.00
2024-02-08T23:22:15.095Z,8.00
2024-02-08T23:24:19.902Z,8.00
2024-02-08T23:26:22.984Z,8.00
2024-02-08T23:28:29.570Z,8.00
2024-02-08T23:30:34.361Z,8.00
2024-02-08T23:32:36.882Z,8.00
2024-02-08T23:34:41.860Z,8.00
2024-02-08T23:36:43.934Z,8.00
2024-02-08T23:38:47.944Z,8.00
2024-02-08T23:40:50.851Z,8.00
2024-02-08T23:42:57.106Z,8.00
2024-02-08T23:45:00.052Z,8.00
2024-02-08T23:47:06.510Z,8.10
2024-02-08T23:49:09.486Z,8.10
2024-02-08T23:51:12.414Z,8.10
2024-02-08T23:53:15.264Z,8.10
2024-02-08T23:55:20.173Z,8.00
2024-02-08T23:57:23.065Z,8.10
2024-02-08T23:59:25.926Z,8.10
